createdAt,value
2022-12-18T00:01:35.892Z,90414.53
2022-12-18T00:04:05.346Z,90415.25
2022-12-18T00:06:33.642Z,90416.09
2022-12-18T00:09:01.973Z,90413.31
2022-12-18T00:11:31.012Z,90417.66
2022-12-18T00:14:00.193Z,90419.84
2022-12-18T00:16:28.561Z,90421.50
2022-12-18T00:18:58.127Z,90417.78
2022-12-18T00:21:24.952Z,90418.72
2022-12-18T00:23:52.712Z,90414.94
2022-12-18T00:26:45.907Z,90419.28
2022-12-18T00:29:15.047Z,90425.28
2022-12-18T00:31:43.258Z,90430.47
2022-12-18T00:34:14.317Z,90436.63
2022-12-18T00:36:42.269Z,90430.22
2022-12-18T00:39:09.590Z,90426.34
2022-12-18T00:41:36.481Z,90436.16
2022-12-18T00:44:04.513Z,90430.88
2022-12-18T00:46:32.264Z,90428.97
2022-12-18T00:48:59.619Z,90432.44
2022-12-18T00:51:27.102Z,90434.09
2022-12-18T00:53:54.273Z,90431.41
2022-12-18T00:56:25.301Z,90430.56
2022-12-18T00:58:52.188Z,90436.34
2022-12-18T01:01:19.534Z,90432.19
2022-12-18T01:03:46.567Z,90438.06
2022-12-18T01:06:15.521Z,90433.16
2022-12-18T01:08:42.326Z,90431.47
2022-12-18T01:11:14.807Z,90434.25
2022-12-18T01:13:42.013Z,90427.88
2022-12-18T01:16:09.541Z,90429.19
2022-12-18T01:18:36.756Z,90422.44
2022-12-18T01:21:08.736Z,90419.69
2022-12-18T01:23:35.726Z,90427.94
2022-12-18T01:26:11.377Z,90430.72
2022-12-18T01:28:38.912Z,90421.69
2022-12-18T01:31:17.597Z,90423.28
2022-12-18T01:33:45.195Z,90428.91
2022-12-18T01:36:21.762Z,90424.13
2022-12-18T01:38:48.954Z,90429.16
2022-12-18T01:41:17.760Z,90433.88
2022-12-18T01:43:51.993Z,90431.28
2022-12-18T01:46:20.159Z,90427.94
2022-12-18T01:48:51.199Z,90420.41
2022-12-18T01:51:18.367Z,90419.69
2022-12-18T01:53:47.310Z,90419.44
2022-12-18T01:56:17.192Z,90432.34
2022-12-18T01:59:13.216Z,90430.22
2022-12-18T02:01:40.186Z,90432.34
2022-12-18T02:04:25.985Z,90425.38
2022-12-18T02:07:19.408Z,90428.72
2022-12-18T02:09:56.165Z,90429.22
2022-12-18T02:12:25.741Z,90421.41
2022-12-18T02:15:07.036Z,90426.47
2022-12-18T02:17:48.730Z,90429.28
2022-12-18T02:20:29.386Z,90439.81
2022-12-18T02:23:31.805Z,90430.16
2022-12-18T02:26:33.139Z,90435.94
2022-12-18T02:29:06.864Z,90431.25
2022-12-18T02:31:41.205Z,90441.88
2022-12-18T02:34:10.565Z,90432.88
2022-12-18T02:36:41.472Z,90446.34
2022-12-18T02:39:12.213Z,90436.00
2022-12-18T02:41:39.760Z,90434.94
2022-12-18T02:44:13.028Z,90442.84
2022-12-18T02:46:43.893Z,90436.94
2022-12-18T02:49:26.579Z,90435.91
2022-12-18T02:52:19.614Z,90435.25
2022-12-18T02:54:54.517Z,90439.25
2022-12-18T02:57:51.506Z,90433.72
2022-12-18T03:00:25.716Z,90443.34
2022-12-18T03:03:15.784Z,90439.47
2022-12-18T03:05:51.918Z,90443.78
2022-12-18T03:08:37.302Z,90433.53
2022-12-18T03:11:07.955Z,90448.34
2022-12-18T03:13:40.681Z,90445.19
2022-12-18T03:16:12.281Z,90454.44
2022-12-18T03:19:01.988Z,90450.16
2022-12-18T03:21:38.395Z,90451.41
2022-12-18T03:24:08.977Z,90458.63
2022-12-18T03:26:40.162Z,90457.63
2022-12-18T03:29:16.279Z,90464.41
2022-12-18T03:31:48.798Z,90465.56
2022-12-18T03:34:23.012Z,90456.97
2022-12-18T03:36:50.052Z,90460.69
2022-12-18T03:39:16.972Z,90463.34
2022-12-18T03:41:52.622Z,90465.81
2022-12-18T03:44:29.595Z,90474.81
2022-12-18T03:47:14.539Z,90462.19
2022-12-18T03:49:56.647Z,90470.31
2022-12-18T03:52:33.321Z,90476.69
2022-12-18T03:55:02.987Z,90471.31
2022-12-18T03:57:32.024Z,90479.75
2022-12-18T04:00:03.321Z,90483.69
2022-12-18T04:02:34.580Z,90490.47
2022-12-18T04:05:06.096Z,90483.38
2022-12-18T04:07:33.538Z,90477.44
2022-12-18T04:10:02.698Z,90482.06
2022-12-18T04:12:30.762Z,90477.81
2022-12-18T04:14:57.634Z,90482.69
2022-12-18T04:17:24.477Z,90491.97
2022-12-18T04:19:51.411Z,90496.66
2022-12-18T04:22:18.341Z,90495.91
2022-12-18T04:24:45.296Z,90503.34
2022-12-18T04:27:12.088Z,90506.13
2022-12-18T04:29:38.957Z,90499.53
2022-12-18T04:32:06.031Z,90505.25
2022-12-18T04:34:32.861Z,90504.50
2022-12-18T04:36:59.733Z,90505.56
2022-12-18T04:39:26.580Z,90508.47
2022-12-18T04:41:53.557Z,90508.53
2022-12-18T04:44:20.347Z,90515.19
2022-12-18T04:46:47.226Z,90515.44
2022-12-18T04:49:14.067Z,90513.78
2022-12-18T04:51:40.949Z,90516.06
2022-12-18T04:54:07.739Z,90517.69
2022-12-18T04:56:34.688Z,90531.16
2022-12-18T04:59:01.537Z,90530.47
2022-12-18T05:01:34.291Z,90534.25
2022-12-18T05:04:02.925Z,90535.75
2022-12-18T05:06:30.020Z,90535.59
2022-12-18T05:08:56.912Z,90534.91
2022-12-18T05:11:23.721Z,90540.53
2022-12-18T05:13:52.249Z,90541.78
2022-12-18T05:16:19.160Z,90536.88
2022-12-18T05:18:46.067Z,90531.41
2022-12-18T05:21:13.039Z,90535.84
2022-12-18T05:23:40.236Z,90541.13
2022-12-18T05:26:08.448Z,90536.97
2022-12-18T05:28:36.611Z,90538.41
2022-12-18T05:31:05.387Z,90535.34
2022-12-18T05:33:34.556Z,90537.63
2022-12-18T05:36:02.972Z,90540.69
2022-12-18T05:38:31.569Z,90547.88
2022-12-18T05:40:59.249Z,90549.72
2022-12-18T05:43:27.384Z,90550.00
2022-12-18T05:45:55.175Z,90557.06
2022-12-18T05:48:22.193Z,90553.25
2022-12-18T05:50:51.239Z,90565.75
2022-12-18T05:53:20.100Z,90560.84
2022-12-18T05:55:48.280Z,90554.84
2022-12-18T05:58:16.640Z,90566.13
2022-12-18T06:00:46.148Z,90567.13
2022-12-18T06:03:15.909Z,90563.44
2022-12-18T06:05:45.008Z,90565.94
2022-12-18T06:08:13.405Z,90568.59
2022-12-18T06:10:42.126Z,90574.88
2022-12-18T06:13:09.513Z,90580.31
2022-12-18T06:15:39.448Z,90583.88
2022-12-18T06:18:06.401Z,90579.38
2022-12-18T06:20:33.826Z,90588.94
2022-12-18T06:23:02.545Z,90586.72
2022-12-18T06:25:29.580Z,90578.97
2022-12-18T06:27:56.532Z,90580.63
2022-12-18T06:30:23.429Z,90587.25
2022-12-18T06:32:56.375Z,90591.28
2022-12-18T06:35:24.405Z,90596.13
2022-12-18T06:37:54.343Z,90595.25
2022-12-18T06:40:21.347Z,90603.88
2022-12-18T06:42:50.396Z,90599.03
2022-12-18T06:45:20.160Z,90599.94
2022-12-18T06:47:47.252Z,90597.91
2022-12-18T06:50:17.122Z,90601.88
2022-12-18T06:52:46.545Z,90603.56
2022-12-18T06:55:13.795Z,90615.34
2022-12-18T06:57:40.667Z,90618.88
2022-12-18T07:00:08.409Z,90620.97
2022-12-18T07:02:35.745Z,90622.47
2022-12-18T07:05:07.466Z,90621.47
2022-12-18T07:07:37.491Z,90620.41
2022-12-18T07:10:04.969Z,90633.75
2022-12-18T07:12:32.045Z,90624.88
2022-12-18T07:14:59.969Z,90628.16
2022-12-18T07:17:26.744Z,90627.97
2022-12-18T07:19:54.653Z,90629.69
2022-12-18T07:22:21.577Z,90638.78
2022-12-18T07:24:48.513Z,90639.84
2022-12-18T07:27:15.341Z,90645.56
2022-12-18T07:29:42.382Z,90655.38
2022-12-18T07:32:09.513Z,90650.22
2022-12-18T07:34:36.618Z,90646.88
2022-12-18T07:37:06.589Z,90647.25
2022-12-18T07:39:33.607Z,90649.81
2022-12-18T07:42:00.619Z,90657.75
2022-12-18T07:44:27.533Z,90646.91
2022-12-18T07:46:54.403Z,90649.56
2022-12-18T07:49:21.591Z,90656.97
2022-12-18T07:51:48.419Z,90652.22
2022-12-18T07:54:15.333Z,90661.22
2022-12-18T07:56:42.247Z,90670.66
2022-12-18T07:59:09.125Z,90664.09
2022-12-18T08:01:36.177Z,90667.69
2022-12-18T08:04:03.269Z,90667.91
2022-12-18T08:06:30.297Z,90665.97
2022-12-18T08:08:57.806Z,90671.84
2022-12-18T08:11:27.380Z,90671.34
2022-12-18T08:13:55.122Z,90668.00
2022-12-18T08:16:23.253Z,90670.56
2022-12-18T08:18:50.782Z,90671.63
2022-12-18T08:21:23.618Z,90667.00
2022-12-18T08:23:52.377Z,90670.69
2022-12-18T08:26:19.943Z,90659.41
2022-12-18T08:28:47.926Z,90648.13
2022-12-18T08:31:15.389Z,90648.28
2022-12-18T08:33:43.282Z,90654.31
2022-12-18T08:36:11.219Z,90645.69
2022-12-18T08:38:38.547Z,90644.22
2022-12-18T08:41:11.638Z,90636.59
2022-12-18T08:43:38.882Z,90641.34
2022-12-18T08:46:06.144Z,90644.53
2022-12-18T08:48:33.077Z,90638.31
2022-12-18T08:51:01.089Z,90632.16
2022-12-18T08:53:34.089Z,90633.13
2022-12-18T08:56:02.746Z,90631.78
2022-12-18T08:58:30.511Z,90630.50
2022-12-18T09:01:27.231Z,90622.00
2022-12-18T09:03:54.116Z,90624.34
2022-12-18T09:06:22.836Z,90611.22
2022-12-18T09:08:50.627Z,90608.75
2022-12-18T09:11:26.500Z,90608.63
2022-12-18T09:13:54.240Z,90606.66
2022-12-18T09:16:25.019Z,90600.38
2022-12-18T09:18:59.547Z,90600.72
2022-12-18T09:21:29.082Z,90594.28
2022-12-18T09:23:57.314Z,90589.72
2022-12-18T09:26:25.251Z,90591.75
2022-12-18T09:28:52.676Z,90582.50
2022-12-18T09:31:22.267Z,90584.88
2022-12-18T09:33:49.218Z,90584.53
2022-12-18T09:36:18.128Z,90586.13
2022-12-18T09:38:46.012Z,90580.09
2022-12-18T09:41:42.000Z,90580.09
2022-12-18T09:44:32.094Z,90579.16
2022-12-18T09:47:04.793Z,90572.03
2022-12-18T09:49:36.353Z,90568.34
2022-12-18T09:52:12.833Z,90571.41
2022-12-18T09:54:42.427Z,90568.22
2022-12-18T09:57:15.732Z,90566.97
2022-12-18T09:59:47.786Z,90550.84
2022-12-18T10:02:21.142Z,90556.03
2022-12-18T10:05:13.089Z,90552.94
2022-12-18T10:07:56.429Z,90551.34
2022-12-18T10:10:32.463Z,90546.19
2022-12-18T10:13:04.691Z,90550.09
2022-12-18T10:15:53.417Z,90545.66
2022-12-18T10:18:46.790Z,90543.22
2022-12-18T10:21:19.336Z,90549.34
2022-12-18T10:24:32.470Z,90541.81
2022-12-18T10:27:17.986Z,90537.25
2022-12-18T10:29:46.937Z,90540.34
2022-12-18T10:32:19.951Z,90530.50
2022-12-18T10:34:48.721Z,90540.13
2022-12-18T10:37:22.124Z,90536.94
2022-12-18T10:40:19.849Z,90529.13
2022-12-18T10:43:12.339Z,90525.31
2022-12-18T10:45:39.388Z,90527.31
2022-12-18T10:48:18.941Z,90521.06
2022-12-18T10:51:10.338Z,90519.69
2022-12-18T10:53:40.888Z,90524.69
2022-12-18T10:56:08.206Z,90514.28
2022-12-18T10:58:37.422Z,90523.06
2022-12-18T11:01:09.078Z,90521.81
2022-12-18T11:03:46.206Z,90524.16
2022-12-18T11:06:14.236Z,90520.13
2022-12-18T11:08:44.454Z,90522.69
2022-12-18T11:11:22.845Z,90518.00
2022-12-18T11:14:18.627Z,90516.53
2022-12-18T11:17:23.870Z,90515.22
2022-12-18T11:19:41.075Z,90526.06
2022-12-18T11:22:27.761Z,90514.63
2022-12-18T11:25:33.479Z,90514.63
2022-12-18T11:28:26.473Z,90509.72
2022-12-18T11:31:16.304Z,90511.09
2022-12-18T11:34:12.024Z,90507.63
2022-12-18T11:36:43.967Z,90508.25
2022-12-18T11:39:18.688Z,90502.31
2022-12-18T11:41:56.155Z,90513.13
2022-12-18T11:44:31.219Z,90512.91
2022-12-18T11:47:09.815Z,90507.50
2022-12-18T11:49:37.624Z,90506.22
2022-12-18T11:52:31.256Z,90505.69
2022-12-18T11:55:02.729Z,90511.94
2022-12-18T11:57:41.203Z,90517.97
2022-12-18T12:00:20.144Z,90508.44
2022-12-18T12:03:05.402Z,90505.69
2022-12-18T12:05:41.575Z,90499.56
2022-12-18T12:08:08.418Z,90507.38
2022-12-18T12:10:48.101Z,90500.56
2022-12-18T12:13:27.804Z,90506.31
2022-12-18T12:16:00.953Z,90508.09
2022-12-18T12:19:05.677Z,90505.03
2022-12-18T12:21:44.536Z,90507.97
2022-12-18T12:24:22.158Z,90509.50
2022-12-18T12:27:03.970Z,90510.09
2022-12-18T12:29:42.800Z,90505.00
2022-12-18T12:32:21.528Z,90510.69
2022-12-18T12:35:09.390Z,90511.88
2022-12-18T12:37:36.603Z,90509.72
2022-12-18T12:40:15.395Z,90510.25
2022-12-18T12:43:16.535Z,90507.94
2022-12-18T12:46:07.598Z,90511.00
2022-12-18T12:49:04.013Z,90505.34
2022-12-18T12:51:35.967Z,90513.22
2022-12-18T12:54:05.669Z,90503.03
2022-12-18T12:56:45.590Z,90506.94
2022-12-18T12:59:20.060Z,90506.22
2022-12-18T13:02:17.669Z,90513.63
2022-12-18T13:04:58.484Z,90508.34
2022-12-18T13:07:34.015Z,90522.88
2022-12-18T13:10:19.317Z,90518.97
2022-12-18T13:13:02.921Z,90521.19
2022-12-18T13:15:44.309Z,90528.06
2022-12-18T13:18:20.871Z,90520.66
2022-12-18T13:20:59.948Z,90527.34
2022-12-18T13:23:38.314Z,90524.69
2022-12-18T13:26:08.246Z,90525.22
2022-12-18T13:28:35.040Z,90528.91
2022-12-18T13:31:03.452Z,90533.03
2022-12-18T13:33:30.323Z,90527.13
2022-12-18T13:36:30.366Z,90524.38
2022-12-18T13:39:19.742Z,90527.41
2022-12-18T13:42:06.712Z,90530.81
2022-12-18T13:44:41.122Z,90519.38
2022-12-18T13:47:38.833Z,90523.72
2022-12-18T13:50:23.574Z,90530.19
2022-12-18T13:52:52.468Z,90525.09
2022-12-18T13:55:21.857Z,90532.72
2022-12-18T13:57:48.817Z,90530.06
2022-12-18T14:00:30.720Z,90530.41
2022-12-18T14:02:59.781Z,90530.50
2022-12-18T14:05:38.686Z,90522.53
2022-12-18T14:08:14.061Z,90532.63
2022-12-18T14:10:49.361Z,90528.69
2022-12-18T14:13:30.638Z,90532.81
2022-12-18T14:15:59.224Z,90530.06
2022-12-18T14:18:53.847Z,90534.69
2022-12-18T14:21:24.464Z,90535.34
2022-12-18T14:24:05.864Z,90532.91
2022-12-18T14:26:33.144Z,90527.94
2022-12-18T14:29:18.672Z,90524.03
2022-12-18T14:31:46.433Z,90530.81
2022-12-18T14:34:19.545Z,90527.09
2022-12-18T14:36:55.594Z,90525.31
2022-12-18T14:39:23.069Z,90535.59
2022-12-18T14:41:50.727Z,90521.81
2022-12-18T14:44:17.565Z,90526.16
2022-12-18T14:46:47.325Z,90523.19
2022-12-18T14:49:35.514Z,90519.59
2022-12-18T14:52:07.206Z,90521.38
2022-12-18T14:54:38.439Z,90529.22
2022-12-18T14:57:30.000Z,90533.44
2022-12-18T15:00:08.703Z,90533.03
2022-12-18T15:02:37.439Z,90528.06
2022-12-18T15:05:30.924Z,90543.19
2022-12-18T15:08:01.761Z,90535.97
2022-12-18T15:10:33.960Z,90542.91
2022-12-18T15:13:00.707Z,90538.53
2022-12-18T15:15:36.392Z,90538.34
2022-12-18T15:18:04.948Z,90548.41
2022-12-18T15:20:33.645Z,90549.94
2022-12-18T15:23:00.761Z,90544.53
2022-12-18T15:25:37.451Z,90552.03
2022-12-18T15:28:16.911Z,90554.56
2022-12-18T15:31:00.483Z,90554.88
2022-12-18T15:33:33.128Z,90555.44
2022-12-18T15:36:09.267Z,90562.09
2022-12-18T15:38:36.227Z,90564.34
2022-12-18T15:41:03.841Z,90560.72
2022-12-18T15:43:31.249Z,90567.44
2022-12-18T15:45:58.038Z,90562.22
2022-12-18T15:48:25.024Z,90572.91
2022-12-18T15:50:54.969Z,90574.63
2022-12-18T15:53:21.946Z,90571.69
2022-12-18T15:55:49.054Z,90574.22
2022-12-18T15:58:15.884Z,90576.75
2022-12-18T16:00:43.452Z,90575.06
2022-12-18T16:03:12.083Z,90569.47
2022-12-18T16:05:53.795Z,90574.69
2022-12-18T16:08:21.248Z,90577.44
2022-12-18T16:10:48.711Z,90570.25
2022-12-18T16:13:20.398Z,90579.47
2022-12-18T16:15:47.405Z,90577.34
2022-12-18T16:18:16.989Z,90581.25
2022-12-18T16:20:43.890Z,90573.44
2022-12-18T16:23:11.068Z,90577.97
2022-12-18T16:25:38.833Z,90572.78
2022-12-18T16:28:06.365Z,90573.31
2022-12-18T16:30:44.613Z,90566.13
2022-12-18T16:33:11.737Z,90563.16
2022-12-18T16:35:38.591Z,90561.44
2022-12-18T16:38:05.604Z,90566.75
2022-12-18T16:40:34.217Z,90569.06
2022-12-18T16:43:02.683Z,90574.16
2022-12-18T16:45:29.817Z,90569.28
2022-12-18T16:47:56.812Z,90569.59
2022-12-18T16:50:26.709Z,90565.06
2022-12-18T16:52:54.735Z,90567.06
2022-12-18T16:55:25.818Z,90568.41
2022-12-18T16:57:52.835Z,90564.34
2022-12-18T17:00:19.891Z,90566.34
2022-12-18T17:02:47.199Z,90564.84
2022-12-18T17:05:14.132Z,90560.97
2022-12-18T17:07:40.943Z,90565.19
2022-12-18T17:10:09.428Z,90560.22
2022-12-18T17:12:40.044Z,90561.16
2022-12-18T17:15:07.838Z,90561.09
2022-12-18T17:17:34.805Z,90566.56
2022-12-18T17:20:01.721Z,90567.22
2022-12-18T17:22:29.051Z,90571.75
2022-12-18T17:24:56.461Z,90565.94
2022-12-18T17:27:23.343Z,90564.38
2022-12-18T17:29:51.440Z,90560.03
2022-12-18T17:32:18.363Z,90566.19
2022-12-18T17:34:45.349Z,90559.94
2022-12-18T17:37:12.875Z,90555.94
2022-12-18T17:39:39.954Z,90558.16
2022-12-18T17:42:07.661Z,90557.84
2022-12-18T17:44:35.905Z,90562.91
2022-12-18T17:47:06.337Z,90552.31
2022-12-18T17:49:35.913Z,90564.78
2022-12-18T17:52:02.789Z,90554.19
2022-12-18T17:54:29.704Z,90556.09
2022-12-18T17:56:57.291Z,90555.38
2022-12-18T17:59:24.182Z,90556.78
2022-12-18T18:01:51.214Z,90557.19
2022-12-18T18:04:19.100Z,90563.78
2022-12-18T18:06:46.272Z,90563.56
2022-12-18T18:09:16.295Z,90554.34
2022-12-18T18:11:45.164Z,90552.53
2022-12-18T18:14:18.471Z,90562.91
2022-12-18T18:16:47.979Z,90563.66
2022-12-18T18:19:18.813Z,90554.13
2022-12-18T18:21:48.234Z,90557.38
2022-12-18T18:24:19.355Z,90561.44
2022-12-18T18:26:47.226Z,90561.09
2022-12-18T18:29:20.282Z,90563.31
2022-12-18T18:31:48.201Z,90559.28
2022-12-18T18:34:27.409Z,90556.59
2022-12-18T18:36:54.509Z,90564.13
2022-12-18T18:39:21.444Z,90554.38
2022-12-18T18:41:48.842Z,90563.25
2022-12-18T18:44:20.514Z,90557.03
2022-12-18T18:46:51.475Z,90560.28
2022-12-18T18:49:18.327Z,90553.22
2022-12-18T18:51:45.243Z,90550.41
2022-12-18T18:54:12.195Z,90554.75
2022-12-18T18:57:18.947Z,90552.13
2022-12-18T18:59:31.899Z,90547.22
2022-12-18T19:02:04.701Z,90553.16
2022-12-18T19:04:33.877Z,90548.13
2022-12-18T19:07:01.229Z,90549.63
2022-12-18T19:09:31.606Z,90553.94
2022-12-18T19:11:58.739Z,90539.31
2022-12-18T19:14:25.828Z,90549.16
2022-12-18T19:16:52.772Z,90547.63
2022-12-18T19:19:20.208Z,90546.78
2022-12-18T19:21:47.896Z,90540.78
2022-12-18T19:24:14.736Z,90549.44
2022-12-18T19:26:41.574Z,90542.00
2022-12-18T19:29:09.762Z,90540.72
2022-12-18T19:31:37.473Z,90549.94
2022-12-18T19:34:05.936Z,90544.44
2022-12-18T19:36:34.281Z,90555.19
2022-12-18T19:39:02.323Z,90556.97
2022-12-18T19:41:32.974Z,90558.25
2022-12-18T19:44:02.406Z,90554.22
2022-12-18T19:46:35.296Z,90555.47
2022-12-18T19:49:02.724Z,90552.41
2022-12-18T19:51:31.695Z,90549.34
2022-12-18T19:54:01.950Z,90541.25
2022-12-18T19:56:37.036Z,90550.81
2022-12-18T19:59:04.544Z,90543.00
2022-12-18T20:01:32.447Z,90539.50
2022-12-18T20:03:59.765Z,90537.28
2022-12-18T20:06:38.894Z,90534.81
2022-12-18T20:09:06.948Z,90542.31
2022-12-18T20:11:41.381Z,90539.03
2022-12-18T20:14:10.650Z,90544.44
2022-12-18T20:16:38.593Z,90545.53
2022-12-18T20:19:10.208Z,90540.44
2022-12-18T20:21:37.967Z,90543.59
2022-12-18T20:24:05.398Z,90540.63
2022-12-18T20:26:32.455Z,90528.84
2022-12-18T20:28:59.447Z,90535.97
2022-12-18T20:31:26.417Z,90531.75
2022-12-18T20:33:55.635Z,90531.28
2022-12-18T20:36:29.509Z,90522.72
2022-12-18T20:39:00.454Z,90527.19
2022-12-18T20:41:38.187Z,90521.94
2022-12-18T20:44:23.650Z,90527.09
2022-12-18T20:46:58.113Z,90526.97
2022-12-18T20:49:27.004Z,90525.06
2022-12-18T20:51:57.756Z,90526.66
2022-12-18T20:54:27.821Z,90524.91
2022-12-18T20:56:55.836Z,90521.28
2022-12-18T20:59:22.990Z,90521.22
2022-12-18T21:01:50.305Z,90510.66
2022-12-18T21:04:19.176Z,90526.00
2022-12-18T21:06:52.400Z,90514.75
2022-12-18T21:09:23.141Z,90512.91
2022-12-18T21:11:50.536Z,90505.59
2022-12-18T21:14:20.333Z,90510.69
2022-12-18T21:16:48.179Z,90513.31
2022-12-18T21:19:21.059Z,90507.03
2022-12-18T21:21:47.994Z,90507.91
2022-12-18T21:24:15.656Z,90513.88
2022-12-18T21:26:45.881Z,90510.53
2022-12-18T21:29:19.600Z,90513.97
2022-12-18T21:31:46.724Z,90506.81
2022-12-18T21:34:23.047Z,90508.22
2022-12-18T21:36:50.078Z,90512.72
2022-12-18T21:39:17.769Z,90508.69
2022-12-18T21:41:46.720Z,90508.16
2022-12-18T21:44:16.516Z,90509.31
2022-12-18T21:46:50.144Z,90506.59
2022-12-18T21:49:20.639Z,90508.00
2022-12-18T21:51:49.595Z,90510.09
2022-12-18T21:54:17.518Z,90502.16
2022-12-18T21:57:00.716Z,90497.38
2022-12-18T21:59:31.863Z,90505.72
2022-12-18T22:02:02.353Z,90496.97
2022-12-18T22:04:29.745Z,90498.69
2022-12-18T22:06:57.084Z,90497.03
2022-12-18T22:09:25.168Z,90502.34
2022-12-18T22:11:52.750Z,90490.44
2022-12-18T22:14:20.933Z,90495.66
2022-12-18T22:16:48.099Z,90492.13
2022-12-18T22:19:16.978Z,90495.16
2022-12-18T22:21:48.126Z,90494.50
2022-12-18T22:24:26.105Z,90488.66
2022-12-18T22:26:54.006Z,90487.25
2022-12-18T22:29:29.148Z,90483.94
2022-12-18T22:31:57.147Z,90485.53
2022-12-18T22:34:24.089Z,90484.03
2022-12-18T22:36:51.162Z,90478.34
2022-12-18T22:39:20.819Z,90481.72
2022-12-18T22:41:48.335Z,90494.09
2022-12-18T22:44:17.537Z,90489.66
2022-12-18T22:46:51.398Z,90485.69
2022-12-18T22:49:32.670Z,90486.31
2022-12-18T22:52:01.644Z,90488.28
2022-12-18T22:54:28.541Z,90486.59
2022-12-18T22:56:55.788Z,90489.97
2022-12-18T22:59:24.064Z,90474.66
2022-12-18T23:01:57.112Z,90488.16
2022-12-18T23:04:27.835Z,90485.41
2022-12-18T23:06:58.030Z,90492.09
2022-12-18T23:09:24.897Z,90483.16
2022-12-18T23:11:51.723Z,90483.94
2022-12-18T23:14:18.592Z,90486.75
2022-12-18T23:16:45.586Z,90485.19
2022-12-18T23:19:14.258Z,90486.41
2022-12-18T23:21:46.387Z,90484.94
2022-12-18T23:24:13.389Z,90492.44
2022-12-18T23:26:40.418Z,90488.47
2022-12-18T23:29:07.658Z,90485.34
2022-12-18T23:31:37.149Z,90485.97
2022-12-18T23:34:05.997Z,90484.16
2022-12-18T23:36:35.852Z,90485.66
2022-12-18T23:39:15.607Z,90487.97
2022-12-18T23:41:58.150Z,90479.94
2022-12-18T23:44:25.275Z,90483.78
2022-12-18T23:46:52.146Z,90481.88
2022-12-18T23:49:18.995Z,90479.63
2022-12-18T23:51:45.884Z,90479.94
2022-12-18T23:54:12.712Z,90478.25
2022-12-18T23:56:39.609Z,90474.56
2022-12-18T23:59:06.554Z,90481.25
